Air Navigation Services of Czech Republic
Airport: LKCV Updated:  15.10.2019 18:00:30  UTC
 METAR LKCV 15.10. 18:00 ...
METAR LKCV 151800Z 06003KT 040V100 CAVOK 14/12 Q1007 NOSIG RMK BLU BLU=
 TAF LKCV 15.10. 17:00 ...
TAF LKCV 151700Z 1518/1618 14006KT CAVOK      PROB30 TEMPO 1600/1606 4000 BR      BECMG 1604/1606 BKN020      TEMPO 1606/1615 26010KT 7000 RA BKN015 OVC025      TEMPO 1610/1618 27012G24KT=